Data for 04/18/2018

Time Sea-Level Adjusted Pressure Absolute Pressure Temperature Relative Humidity Dew Point   
(mb) (inHg) (mb) (inHg) (C) (F) (%) (C) (F)
00:05 1022 30.18 851 25.13 1.2 34.2 67 -4.2 24.4
00:10 1022 30.18 851 25.13 1.1 34 67 -4.2 24.4
00:15 1022 30.18 851 25.13 1.1 33.9 68 -4.2 24.4
00:20 1022 30.18 851 25.13 0.9 33.7 68 -4.3 24.3
00:25 1022 30.18 851 25.13 0.8 33.5 68 -4.3 24.2
00:30 1022 30.18 851 25.13 0.7 33.3 68 -4.5 23.9
00:35 1022 30.18 851 25.13 0.6 33 66 -5 23
00:40 1022 30.18 851 25.13 0.4 32.8 66 -5.2 22.7
00:45 1022 30.18 851 25.13 0.4 32.8 64 -5.6 22
00:50 1022 30.18 851 25.13 0.4 32.7 63 -5.7 21.7
00:55 1022 30.18 851 25.13 0.4 32.8 61 -6.2 20.9
01:00 1022 30.18 851 25.13 0.4 32.7 60 -6.4 20.5
01:05 1022 30.18 852 25.16 0.4 32.7 60 -6.6 20.2
01:10 1022 30.18 852 25.16 0.3 32.6 60 -6.6 20.1
01:15 1022 30.18 852 25.16 0.4 32.7 59 -6.7 19.9
01:20 1022 30.18 852 25.16 0.3 32.5 60 -6.5 20.3
01:25 1022 30.18 852 25.16 0.1 32.2 60 -6.7 19.9
01:30 1023 30.21 852 25.16 0.2 32.4 60 -6.6 20.1
01:35 1023 30.21 852 25.16 0.2 32.4 61 -6.4 20.5
01:40 1023 30.21 852 25.16 0.3 32.5 61 -6.3 20.6
01:45 1023 30.21 852 25.16 0.2 32.4 61 -6.3 20.6
01:50 1023 30.21 852 25.16 0.2 32.4 62 -6.3 20.7
01:55 1023 30.21 852 25.16 0.2 32.4 61 -6.4 20.5
02:00 1023 30.21 852 25.16 0.3 32.6 61 -6.3 20.6
02:05 1023 30.21 852 25.16 0.3 32.5 61 -6.3 20.7
02:10 1023 30.21 852 25.16 0.2 32.4 61 -6.4 20.4
02:15 1023 30.21 852 25.16 0.3 32.5 61 -6.5 20.4
02:20 1023 30.21 852 25.16 0.2 32.4 61 -6.5 20.3
02:25 1023 30.21 852 25.16 0.2 32.4 59 -6.8 19.8
02:30 1023 30.21 852 25.16 0.2 32.3 60 -6.7 20
02:35 1023 30.21 852 25.16 0.1 32.2 60 -6.8 19.7
02:40 1023 30.21 852 25.16 0 32.1 60 -6.8 19.8
02:45 1023 30.21 852 25.16 0 32 60 -6.9 19.6
02:50 1023 30.21 852 25.16 0 32 58 -7.2 19
02:55 1023 30.21 852 25.16 0.1 32.2 58 -7.2 19
03:00 1023 30.21 852 25.16 0.2 32.4 58 -7.2 19
03:05 1023 30.21 852 25.16 0.2 32.4 57 -7.2 19.1
03:10 1023 30.21 852 25.16 0.2 32.3 58 -7 19.3
03:15 1023 30.21 852 25.16 0.2 32.3 57 -7.3 18.9
03:20 1023 30.21 852 25.16 0.1 32.2 58 -7.2 19.1
03:25 1023 30.21 852 25.16 0.1 32.2 58 -7.3 18.8
03:30 1023 30.21 852 25.16 0.1 32.2 58 -7.2 19
03:35 1023 30.21 852 25.16 0.2 32.3 58 -7.2 19
03:40 1023 30.21 852 25.16 0.1 32.2 58 -7.3 18.8
03:45 1023 30.21 852 25.16 0.1 32.1 60 -6.8 19.8
03:50 1023 30.21 852 25.16 -0.3 31.5 64 -6.4 20.5
03:55 1023 30.21 852 25.16 -0.7 30.8 64 -6.7 19.9
04:00 1023 30.21 852 25.16 -0.6 30.9 62 -7 19.5
04:05 1023 30.21 852 25.16 -0.5 31.1 62 -6.8 19.7
04:10 1023 30.21 852 25.16 -0.5 31 66 -6 21.1
04:15 1023 30.21 852 25.16 -0.9 30.4 70 -5.7 21.7
04:20 1023 30.21 853 25.19 -1.1 30 71 -5.7 21.7
04:25 1023 30.21 853 25.19 -1.4 29.5 72 -5.8 21.6
04:30 1023 30.21 853 25.19 -1.8 28.8 75 -5.6 21.9
04:35 1023 30.21 853 25.19 -2 28.5 77 -5.5 22.1
04:40 1023 30.21 853 25.19 -2.1 28.2 77 -5.6 21.9
04:45 1023 30.21 853 25.19 -2.3 27.9 77 -5.7 21.7
04:50 1023 30.21 853 25.19 -2.4 27.7 78 -5.8 21.6
04:55 1023 30.21 853 25.19 -2.4 27.7 75 -6.3 20.7
05:00 1023 30.21 853 25.19 -2.4 27.6 74 -6.4 20.4
05:05 1023 30.21 853 25.19 -2.5 27.5 73 -6.6 20.1
05:10 1023 30.21 853 25.19 -2.4 27.6 73 -6.6 20
05:15 1024 30.24 853 25.19 -2.4 27.7 74 -6.5 20.3
05:20 1024 30.24 853 25.19 -2.4 27.6 74 -6.4 20.4
05:25 1024 30.24 853 25.19 -2.5 27.6 73 -6.6 20.1
05:30 1024 30.24 853 25.19 -2.5 27.5 72 -6.9 19.6
05:35 1024 30.24 853 25.19 -2.6 27.3 72 -7 19.5
05:40 1024 30.24 853 25.19 -2.6 27.3 72 -7 19.3
05:45 1024 30.24 853 25.19 -3 26.6 73 -7.2 19.1
05:50 1024 30.24 853 25.19 -3.3 26 76 -7 19.4
05:55 1024 30.24 853 25.19 -3.5 25.8 78 -6.8 19.8
06:00 1024 30.24 853 25.19 -3.5 25.6 78 -6.8 19.8
06:05 1024 30.24 853 25.19 -3.5 25.8 78 -6.8 19.7
06:10 1024 30.24 853 25.19 -3.4 25.9 77 -6.9 19.5
06:15 1024 30.24 853 25.19 -3.3 26 76 -7 19.5
06:20 1024 30.24 853 25.19 -3.2 26.2 75 -7 19.4
06:25 1024 30.24 853 25.19 -3.2 26.2 76 -6.9 19.5
06:30 1024 30.24 853 25.19 -3.3 26.1 75 -7 19.4
06:35 1024 30.24 853 25.19 -3.3 26 76 -6.9 19.5
06:40 1024 30.24 853 25.19 -3.4 25.8 77 -7 19.5
06:45 1024 30.24 853 25.19 -3.6 25.6 77 -7 19.4
06:50 1024 30.24 853 25.19 -3.8 25.2 78 -7.1 19.3
06:55 1024 30.24 853 25.19 -3.8 25.2 78 -7.1 19.1
07:00 1024 30.24 853 25.19 -3.7 25.4 77 -7.2 19.1
07:05 1024 30.24 853 25.19 -3.4 25.8 76 -7.1 19.1
07:10 1024 30.24 853 25.19 -3.2 26.3 74 -7.1 19.1
07:15 1024 30.24 853 25.19 -3.1 26.4 74 -7.2 19.1
07:20 1024 30.24 853 25.19 -3.2 26.3 74 -7.2 19.1
07:25 1024 30.24 853 25.19 -3.4 25.9 75 -7.3 18.9
07:30 1024 30.24 853 25.19 -3.5 25.7 75 -7.3 18.8
07:35 1024 30.24 853 25.19 -3.5 25.7 75 -7.3 18.9
07:40 1024 30.24 853 25.19 -3.5 25.7 75 -7.4 18.7
07:45 1024 30.24 853 25.19 -3.2 26.2 73 -7.4 18.6
07:50 1024 30.24 853 25.19 -2.7 27.1 70 -7.4 18.7
07:55 1024 30.24 854 25.22 -2.4 27.6 69 -7.3 18.9
08:00 1024 30.24 854 25.22 -2.3 27.8 69 -7.3 18.9
08:05 1024 30.24 854 25.22 -2 28.4 68 -7 19.3
08:10 1024 30.24 854 25.22 -1.5 29.3 65 -7.1 19.2
08:15 1024 30.24 854 25.22 -1 30.2 64 -7 19.4
08:20 1024 30.24 854 25.22 -0.4 31.2 61 -7 19.4
08:25 1024 30.24 854 25.22 -0.6 31 62 -7.1 19.3
08:30 1024 30.24 854 25.22 -0.3 31.4 61 -7 19.3
08:35 1024 30.24 854 25.22 -0.4 31.3 62 -6.9 19.6
08:40 1024 30.24 854 25.22 -0.5 31.1 62 -6.8 19.7
08:45 1025 30.27 854 25.22 -0.3 31.4 60 -7.2 19
08:50 1025 30.27 854 25.22 0.2 32.4 58 -7.2 19
08:55 1025 30.27 854 25.22 0.4 32.7 59 -6.7 19.9
09:00 1025 30.27 854 25.22 0.6 33.1 59 -6.6 20.2
09:05 1025 30.27 854 25.22 1.8 35.2 52 -7 19.4
09:10 1025 30.27 854 25.22 2 35.5 54 -6.3 20.6
09:15 1025 30.27 854 25.22 2.3 36.1 51 -6.8 19.8
09:20 1024 30.24 854 25.22 2.6 36.6 52 -6.4 20.5
09:25 1024 30.24 854 25.22 2.5 36.4 51 -6.6 20.2
09:30 1024 30.24 854 25.22 2.5 36.6 50 -7 19.4
09:35 1024 30.24 854 25.22 2.6 36.7 50 -6.7 20
09:40 1024 30.24 854 25.22 3.3 37.9 49 -6.3 20.6
09:45 1024 30.24 853 25.19 4 39.3 44 -7 19.4
09:50 1024 30.24 853 25.19 3.4 38.1 48 -6.6 20.1
09:55 1024 30.24 853 25.19 3.5 38.3 48 -6.5 20.3
10:00 1024 30.24 853 25.19 4 39.1 45 -7 19.4
10:05 1024 30.24 853 25.19 4 39.2 46 -6.6 20.1
10:10 1024 30.24 853 25.19 3.7 38.6 46 -7 19.5
10:15 1024 30.24 853 25.19 3.4 38.1 47 -6.9 19.6
10:20 1024 30.24 853 25.19 3.5 38.3 45 -7.4 18.7
10:25 1024 30.24 853 25.19 3.2 37.7 47 -7.2 19.1
10:30 1024 30.24 853 25.19 4.1 39.3 45 -6.8 19.7
10:35 1024 30.24 853 25.19 4.7 40.4 45 -6.2 20.8
10:40 1024 30.24 853 25.19 4.4 39.9 47 -6 21.2
10:45 1024 30.24 853 25.19 3.8 38.9 46 -6.9 19.6
10:50 1024 30.24 853 25.19 3.6 38.5 45 -7.2 19.1
10:55 1024 30.24 853 25.19 4.5 40.1 44 -6.9 19.7
11:00 1024 30.24 853 25.19 4.6 40.4 41 -7.5 18.4
11:05 1024 30.24 853 25.19 4 39.2 42 -7.8 18
11:10 1024 30.24 853 25.19 4.4 39.9 43 -7.2 19
11:15 1024 30.24 853 25.19 4.3 39.8 44 -6.9 19.7
11:20 1024 30.24 853 25.19 4.8 40.6 43 -6.9 19.6
11:25 1024 30.24 853 25.19 5.7 42.3 39 -7.3 18.8
11:30 1024 30.24 853 25.19 5.3 41.5 40 -7.4 18.7
11:35 1024 30.24 853 25.19 5.7 42.3 39 -7.3 18.9
11:40 1024 30.24 853 25.19 5.9 42.7 35 -8.5 16.8
11:45 1024 30.24 853 25.19 5.8 42.5 38 -7.5 18.5
11:50 1024 30.24 853 25.19 5.7 42.2 39 -7.2 19
11:55 1024 30.24 853 25.19 5.4 41.8 35 -8.9 16
12:00 1024 30.24 853 25.19 5.5 42 40 -7.2 19.1
12:05 1024 30.24 853 25.19 6.7 44 38 -6.8 19.8
12:10 1024 30.24 853 25.19 6.5 43.8 34 -8.3 17.1
12:15 1024 30.24 853 25.19 6.7 44.1 41 -5.7 21.7
12:20 1024 30.24 853 25.19 6.3 43.3 40 -6.4 20.6
12:25 1024 30.24 853 25.19 5.7 42.2 38 -7.5 18.5
12:30 1024 30.24 853 25.19 5.8 42.5 40 -6.7 20
12:35 1023 30.21 853 25.19 6.3 43.4 38 -7 19.4
12:40 1023 30.21 853 25.19 5.9 42.7 36 -8.1 17.4
12:45 1023 30.21 853 25.19 6.8 44.2 34 -7.9 17.8
12:50 1023 30.21 853 25.19 6.8 44.3 36 -7.1 19.2
12:55 1023 30.21 852 25.16 7.2 44.9 37 -6.6 20.2
13:00 1023 30.21 852 25.16 7.4 45.3 31 -8.6 16.5
13:05 1023 30.21 852 25.16 7.6 45.6 32 -8.1 17.3
13:10 1023 30.21 852 25.16 8.3 46.9 31 -8 17.5
13:15 1023 30.21 852 25.16 7.9 46.2 34 -7.1 19.3
13:20 1023 30.21 852 25.16 7.8 46 35 -6.6 20
13:25 1023 30.21 852 25.16 7.6 45.6 37 -6.3 20.7
13:30 1023 30.21 852 25.16 7.5 45.5 33 -7.6 18.4
13:35 1023 30.21 852 25.16 8.4 47 31 -8 17.6
13:40 1023 30.21 852 25.16 7.8 46 35 -6.8 19.7
13:45 1023 30.21 852 25.16 7.3 45.1 35 -7.2 19
13:50 1023 30.21 852 25.16 6.8 44.2 37 -7 19.5
13:55 1023 30.21 852 25.16 7.6 45.6 33 -7.5 18.5
14:00 1023 30.21 852 25.16 8.1 46.6 33 -7.1 19.3
14:05 1023 30.21 852 25.16 7.1 44.7 37 -6.6 20.2
14:10 1022 30.18 852 25.16 7.1 44.8 34 -7.8 17.9
14:15 1022 30.18 852 25.16 7.5 45.5 32 -8 17.6
14:20 1022 30.18 852 25.16 8 46.4 31 -8.2 17.3
14:25 1022 30.18 852 25.16 8.6 47.5 31 -7.6 18.3
14:30 1022 30.18 852 25.16 8 46.3 36 -6.3 20.6
14:35 1022 30.18 852 25.16 8.6 47.5 32 -7.3 18.9
14:40 1022 30.18 851 25.13 8.7 47.7 32 -7.2 19
14:45 1022 30.18 851 25.13 8.3 47 32 -7.4 18.6
14:50 1022 30.18 851 25.13 8.2 46.7 32 -7.7 18.2
14:55 1022 30.18 851 25.13 8.5 47.3 31 -7.7 18.1
15:00 1022 30.18 851 25.13 8.2 46.7 31 -8.1 17.5
15:05 1022 30.18 851 25.13 8.5 47.4 31 -7.7 18.2
15:10 1022 30.18 851 25.13 9.1 48.5 30 -7.4 18.7
15:15 1022 30.18 851 25.13 8.8 47.9 30 -8 17.7
15:20 1022 30.18 851 25.13 8.9 47.9 30 -7.8 17.9
15:25 1022 30.18 851 25.13 9 48.1 31 -7.2 19.1
15:30 1022 30.18 851 25.13 9 48.3 31 -7.3 18.8
15:35 1022 30.18 851 25.13 8.8 47.9 31 -7.2 19
15:40 1022 30.18 851 25.13 9.5 49.2 29 -7.5 18.5
15:45 1022 30.18 851 25.13 9.2 48.6 29 -8 17.7
15:50 1022 30.18 851 25.13 8.8 47.8 30 -8 17.7
15:55 1022 30.18 851 25.13 9 48.2 30 -7.6 18.2
16:00 1022 30.18 851 25.13 8.6 47.5 30 -8.2 17.3
16:05 1021 30.15 851 25.13 9 48.3 29 -8 17.6
16:10 1021 30.15 851 25.13 9.7 49.4 28 -7.8 17.9
16:15 1021 30.15 851 25.13 9.3 48.8 28 -8.1 17.4
16:20 1021 30.15 851 25.13 8.7 47.6 30 -8.2 17.3
16:25 1021 30.15 851 25.13 9.1 48.4 29 -8.2 17.3
16:30 1021 30.15 851 25.13 9.3 48.8 27 -8.5 16.6
16:35 1021 30.15 850 25.1 9.8 49.7 26 -8.7 16.3
16:40 1021 30.15 850 25.1 11 51.8 24 -8.6 16.5
16:45 1021 30.15 850 25.1 11.1 51.9 25 -8.1 17.3
16:50 1021 30.15 850 25.1 10.2 50.3 27 -8.1 17.4
16:55 1021 30.15 850 25.1 9.8 49.7 26 -8.6 16.5
17:00 1021 30.15 850 25.1 9.6 49.4 27 -8.6 16.4
17:05 1021 30.15 850 25.1 10.3 50.6 26 -8.5 16.8
17:10 1021 30.15 850 25.1 10.1 50.2 26 -8.4 16.9
17:15 1021 30.15 850 25.1 9.5 49.2 28 -8.3 17.1
17:20 1021 30.15 850 25.1 10.3 50.5 27 -8.1 17.5
17:25 1021 30.15 850 25.1 10.6 51 26 -8.1 17.5
17:30 1021 30.15 850 25.1 10.4 50.7 26 -8.1 17.3
17:35 1021 30.15 850 25.1 10 49.9 26 -8.5 16.8
17:40 1021 30.15 850 25.1 9.7 49.5 26 -8.8 16.2
17:45 1021 30.15 850 25.1 9.7 49.5 26 -8.7 16.3
17:50 1021 30.15 850 25.1 9.7 49.5 27 -8.5 16.7
17:55 1021 30.15 850 25.1 10.3 50.5 27 -8.1 17.4
18:00 1021 30.15 850 25.1 9.8 49.7 27 -8.5 16.7
18:05 1021 30.15 850 25.1 9.7 49.4 27 -8.7 16.4
18:10 1021 30.15 850 25.1 9.7 49.4 27 -8.4 16.8
18:15 1021 30.15 850 25.1 10 50.1 26 -8.6 16.5
18:20 1021 30.15 850 25.1 10.3 50.5 25 -8.7 16.3
18:25 1021 30.15 850 25.1 9.6 49.4 26 -8.8 16.2
18:30 1021 30.15 850 25.1 10 50 25 -8.9 15.9
18:35 1021 30.15 850 25.1 10.3 50.5 26 -8.2 17.3
18:40 1021 30.15 850 25.1 9.7 49.4 27 -8.6 16.5
18:45 1020 30.12 850 25.1 9.3 48.8 27 -8.6 16.6
18:50 1020 30.12 850 25.1 9.5 49.1 27 -8.3 17
18:55 1020 30.12 850 25.1 9.5 49 28 -8.3 17
19:00 1020 30.12 850 25.1 9.3 48.8 28 -8.1 17.4
19:05 1020 30.12 850 25.1 9 48.2 28 -8.4 16.9
19:10 1020 30.12 850 25.1 9 48.2 29 -8.3 17.1
19:15 1020 30.12 850 25.1 9.1 48.4 29 -8 17.6
19:20 1020 30.12 850 25.1 8.9 48 29 -8.2 17.3
19:25 1021 30.15 850 25.1 8.8 47.8 30 -8 17.5
19:30 1020 30.12 850 25.1 8.8 47.8 30 -8 17.6
19:35 1021 30.15 850 25.1 8.7 47.7 31 -7.6 18.3
19:40 1021 30.15 850 25.1 8.7 47.7 29 -8.5 16.8
19:45 1021 30.15 850 25.1 8.5 47.3 29 -8.5 16.7
19:50 1021 30.15 850 25.1 8.3 46.9 30 -8.4 16.8
19:55 1021 30.15 850 25.1 8.1 46.7 29 -8.7 16.3
20:00 1021 30.15 850 25.1 8 46.4 29 -8.8 16.2
20:05 1021 30.15 850 25.1 7.8 46 30 -8.6 16.6
20:10 1021 30.15 850 25.1 7.5 45.4 31 -8.5 16.7
20:15 1021 30.15 850 25.1 7.2 45 32 -8.5 16.8
20:20 1021 30.15 850 25.1 7 44.6 33 -8.3 17
20:25 1021 30.15 850 25.1 6.8 44.2 33 -8.4 16.9
20:30 1021 30.15 850 25.1 6.6 44 33 -8.5 16.7
20:35 1021 30.15 850 25.1 6.5 43.8 33 -8.5 16.6
20:40 1021 30.15 850 25.1 6.4 43.5 34 -8.5 16.7
20:45 1021 30.15 850 25.1 6.3 43.3 34 -8.3 17
20:50 1020 30.12 850 25.1 6.2 43.1 35 -8.1 17.4
20:55 1021 30.15 850 25.1 6 42.9 35 -8.3 17
21:00 1021 30.15 850 25.1 6.1 43 34 -8.8 16.2
21:05 1021 30.15 850 25.1 6.2 43.2 33 -8.8 16.2
21:10 1021 30.15 850 25.1 6.2 43.1 34 -8.6 16.5
21:15 1021 30.15 850 25.1 6.1 42.9 35 -8.2 17.2
21:20 1021 30.15 850 25.1 5.9 42.6 35 -8.4 16.9
21:25 1021 30.15 850 25.1 5.8 42.4 36 -8.2 17.2
21:30 1021 30.15 850 25.1 5.7 42.3 35 -8.4 16.8
21:35 1021 30.15 850 25.1 5.8 42.5 34 -9 15.9
21:40 1021 30.15 850 25.1 5.9 42.7 33 -9 15.9
21:45 1021 30.15 850 25.1 5.9 42.6 34 -8.7 16.4
21:50 1021 30.15 850 25.1 5.8 42.5 34 -8.9 16
21:55 1021 30.15 850 25.1 5.8 42.5 33 -9 15.7
22:00 1021 30.15 850 25.1 5.8 42.5 33 -9.1 15.7
22:05 1021 30.15 850 25.1 5.9 42.7 33 -9 15.8
22:10 1021 30.15 850 25.1 5.9 42.6 33 -9.2 15.5
22:15 1021 30.15 850 25.1 5.9 42.5 33 -9 15.7
22:20 1021 30.15 850 25.1 5.9 42.6 33 -9.4 15.2
22:25 1021 30.15 850 25.1 5.9 42.6 33 -9.4 15.2
22:30 1021 30.15 850 25.1 5.9 42.6 33 -9.4 15.1
22:35 1021 30.15 850 25.1 5.9 42.6 33 -9.4 15.1
22:40 1021 30.15 850 25.1 5.9 42.6 33 -9.2 15.4
22:45 1021 30.15 850 25.1 5.8 42.4 33 -9.2 15.4
22:50 1021 30.15 850 25.1 5.7 42.3 34 -9.1 15.6
22:55 1021 30.15 850 25.1 5.7 42.2 33 -9.3 15.3
23:00 1021 30.15 850 25.1 5.7 42.2 34 -9 15.8
23:05 1021 30.15 850 25.1 5.5 42 34 -9 15.7
23:10 1021 30.15 850 25.1 5.4 41.8 35 -9 15.8
23:15 1021 30.15 850 25.1 5.4 41.8 35 -8.8 16.1
23:20 1021 30.15 850 25.1 5.3 41.5 36 -8.8 16.2
23:25 1021 30.15 850 25.1 5.2 41.4 36 -8.6 16.6
23:30 1021 30.15 850 25.1 5.1 41.2 37 -8.3 17.1
23:35 1021 30.15 850 25.1 5 41 38 -8.1 17.4
23:40 1021 30.15 850 25.1 5 41 38 -8.1 17.4
23:45 1021 30.15 850 25.1 4.9 40.8 39 -7.9 17.7
23:50 1021 30.15 850 25.1 4.8 40.7 39 -8 17.7
23:55 1021 30.15 850 25.1 4.7 40.5 40 -7.7 18.2
24:00 1021 30.15 850 25.1 4.7 40.4 40 -7.9 17.8